Time;durP1;ratioP1;P1;durP2;ratioP2;P2;SDS_P1;SDS_P2;PMS_P1;PMS_P2;Temp;Humidity;BMP_temperature;BMP_pressure;BME280_temperature;BME280_humidity;BME280_pressure;Samples;Min_cycle;Max_cycle;Signal;HPM_P1;HPM_P2
2022/11/15 00:00:16;;;;;;;27.80;14.40;;;;;;;6.97;100.00;100645.78;5130799;27;20274;-85
2022/11/15 00:02:42;;;;;;;30.20;14.80;;;;;;;7.05;100.00;100647.50;5130352;27;20467;-85
2022/11/15 00:05:07;;;;;;;28.90;14.55;;;;;;;7.11;100.00;100642.13;5113560;28;20126;-85
2022/11/15 00:07:33;;;;;;;26.52;13.75;;;;;;;7.19;100.00;100652.78;5114297;28;20396;-86
2022/11/15 00:09:58;;;;;;;29.87;14.37;;;;;;;7.27;100.00;100649.06;5130887;27;20459;-85
2022/11/15 00:12:23;;;;;;;26.20;13.80;;;;;;;7.33;100.00;100653.66;5130269;27;20494;-85
2022/11/15 00:14:49;;;;;;;33.60;14.30;;;;;;;7.42;100.00;100648.94;5096178;28;20039;-84
2022/11/15 00:17:14;;;;;;;27.75;13.75;;;;;;;7.48;100.00;100641.91;5113289;28;20417;-85
2022/11/15 00:19:40;;;;;;;25.67;13.47;;;;;;;7.56;100.00;100641.78;5114893;28;20047;-85
2022/11/15 00:22:05;;;;;;;24.97;14.00;;;;;;;7.62;100.00;100649.06;5112637;28;20032;-85
2022/11/15 00:24:30;;;;;;;28.33;13.90;;;;;;;7.69;100.00;100638.28;5113254;28;20032;-85
2022/11/15 00:26:56;;;;;;;24.87;13.03;;;;;;;7.73;100.00;100642.25;5113123;28;20032;-85
2022/11/15 00:29:21;;;;;;;24.52;13.55;;;;;;;7.78;100.00;100637.09;5129816;27;20725;-85
2022/11/15 00:31:47;;;;;;;24.00;13.03;;;;;;;7.84;100.00;100643.53;5095259;28;20070;-85
2022/11/15 00:34:14;;;;;;;23.83;11.70;;;;;;;7.89;100.00;100643.75;5112879;28;20047;-85
2022/11/15 00:36:42;;;;;;;23.60;12.90;;;;;;;7.93;100.00;100636.91;5096139;28;20491;-85
2022/11/15 00:39:07;;;;;;;25.70;13.38;;;;;;;7.97;100.00;100634.63;5096249;28;20035;-84
2022/11/15 00:41:33;;;;;;;24.47;12.30;;;;;;;8.02;100.00;100635.69;5112429;28;20031;-85
2022/11/15 00:43:58;;;;;;;25.67;13.10;;;;;;;8.07;100.00;100630.53;5112704;28;20038;-85
2022/11/15 00:46:24;;;;;;;23.47;13.13;;;;;;;8.12;100.00;100626.34;5096509;28;20052;-85
2022/11/15 00:48:49;;;;;;;28.02;13.77;;;;;;;8.16;100.00;100627.63;5112997;28;20417;-84
2022/11/15 00:51:17;;;;;;;23.07;12.40;;;;;;;8.14;100.00;100625.13;5078435;28;20078;-85
2022/11/15 00:53:42;;;;;;;21.75;12.57;;;;;;;8.16;100.00;100628.44;5113142;28;20108;-85
2022/11/15 00:56:08;;;;;;;26.10;13.10;;;;;;;8.16;100.00;100631.13;5114231;28;20472;-84
2022/11/15 00:58:33;;;;;;;21.27;13.00;;;;;;;8.17;100.00;100626.59;5113486;28;20039;-84
2022/11/15 01:01:14;;;;;;;22.87;13.10;;;;;;;8.19;100.00;100617.25;5079742;28;20058;-85
2022/11/15 01:03:41;;;;;;;23.48;12.88;;;;;;;8.21;100.00;100623.28;5118194;28;20038;-85
2022/11/15 01:06:09;;;;;;;25.20;13.13;;;;;;;8.23;100.00;100623.88;5099886;28;20134;-85
2022/11/15 01:08:35;;;;;;;26.48;13.70;;;;;;;8.25;100.00;100616.41;5116722;28;20035;-85
2022/11/15 01:11:06;;;;;;;24.63;13.23;;;;;;;8.25;100.00;100624.53;5116452;28;20055;-85
2022/11/15 01:13:33;;;;;;;25.73;14.00;;;;;;;8.28;100.00;100615.16;5116876;28;20039;-85
2022/11/15 01:15:59;;;;;;;27.83;13.75;;;;;;;8.31;100.00;100620.19;5082808;28;20050;-85
2022/11/15 01:18:24;;;;;;;28.70;13.88;;;;;;;8.32;100.00;100612.88;5133613;27;20479;-85
2022/11/15 01:20:50;;;;;;;22.27;12.65;;;;;;;8.33;100.00;100604.56;5133755;27;20067;-85
2022/11/15 01:23:16;;;;;;;25.52;12.95;;;;;;;8.35;100.00;100616.00;5133896;27;20376;-85
2022/11/15 01:25:41;;;;;;;25.17;13.03;;;;;;;8.40;100.00;100612.66;5099340;28;20476;-85
2022/11/15 01:28:07;;;;;;;26.52;13.00;;;;;;;8.39;100.00;100603.75;5098782;28;20036;-85
2022/11/15 01:30:32;;;;;;;25.13;13.00;;;;;;;8.40;100.00;100604.56;5133566;27;20472;-85
2022/11/15 01:32:57;;;;;;;26.27;13.57;;;;;;;8.41;100.00;100603.53;5116108;28;20368;-84
2022/11/15 01:35:23;;;;;;;25.23;14.20;;;;;;;8.43;100.00;100598.75;5116221;28;20031;-85
2022/11/15 01:37:49;;;;;;;23.05;13.63;;;;;;;8.45;100.00;100599.41;5116986;28;20039;-85
2022/11/15 01:40:14;;;;;;;27.07;13.53;;;;;;;8.48;100.00;100600.88;5115828;28;20114;-85
2022/11/15 01:42:40;;;;;;;26.48;14.23;;;;;;;8.54;100.00;100598.16;5116829;28;20040;-85
2022/11/15 01:45:06;;;;;;;28.47;13.97;;;;;;;8.59;100.00;100597.53;5082165;28;20390;-85
2022/11/15 01:47:40;;;;;;;30.30;14.20;;;;;;;8.65;100.00;100601.28;5115889;28;20043;-85
2022/11/15 01:50:11;;;;;;;24.83;13.70;;;;;;;8.73;100.00;100598.38;5115622;28;20071;-85
2022/11/15 01:52:39;;;;;;;27.52;13.05;;;;;;;8.77;100.00;100592.31;5115713;28;20048;-84
2022/11/15 01:55:09;;;;;;;25.10;13.30;;;;;;;8.84;100.00;100599.59;5117408;28;20063;-85
2022/11/15 01:57:35;;;;;;;29.90;14.38;;;;;;;8.88;100.00;100601.66;5133769;27;20035;-85
2022/11/15 02:00:03;;;;;;;28.25;14.63;;;;;;;8.93;100.00;100588.34;5099104;28;20094;-85
2022/11/15 02:02:28;;;;;;;25.10;14.68;;;;;;;9.01;100.00;100591.88;5115691;28;20032;-85
2022/11/15 02:04:53;;;;;;;23.83;14.68;;;;;;;9.06;100.00;100589.38;5098471;28;20044;-85
2022/11/15 02:07:21;;;;;;;26.93;14.37;;;;;;;9.09;100.00;100581.66;5132838;27;20055;-85
2022/11/15 02:09:48;;;;;;;28.35;14.38;;;;;;;9.16;100.00;100583.53;5115865;28;20468;-84
2022/11/15 02:12:18;;;;;;;25.42;14.27;;;;;;;9.22;100.00;100582.66;5117120;28;20078;-86
2022/11/15 02:14:47;;;;;;;22.07;14.03;;;;;;;9.28;100.00;100577.22;5115658;28;20088;-85
2022/11/15 02:17:47;;;;;;;28.48;14.82;;;;;;;9.34;100.00;100580.13;5132839;27;20032;-85
2022/11/15 02:20:39;;;;;;;27.02;14.65;;;;;;;9.41;100.00;100586.34;5115813;28;20043;-85
2022/11/15 02:23:44;;;;;;;25.60;14.38;;;;;;;9.45;100.00;100576.75;5115433;28;20031;-85
2022/11/15 02:26:30;;;;;;;28.02;15.07;;;;;;;9.55;100.00;100584.41;5117080;28;20536;-85
2022/11/15 02:29:34;;;;;;;28.30;14.33;;;;;;;9.57;100.00;100576.91;5115308;28;20055;-85
2022/11/15 02:32:18;;;;;;;23.98;13.07;;;;;;;9.64;100.00;100572.28;5115553;28;20035;-85
2022/11/15 02:35:13;;;;;;;34.67;16.27;;;;;;;9.65;100.00;100574.78;5115551;28;20480;-85
2022/11/15 02:37:58;;;;;;;27.02;14.73;;;;;;;9.65;100.00;100572.09;5115145;28;20092;-84
2022/11/15 02:40:42;;;;;;;29.50;15.13;;;;;;;9.68;100.00;100564.56;5115402;28;20546;-85
2022/11/15 02:46:13;;;;;;;26.67;15.02;;;;;;;9.73;100.00;100564.72;5116312;28;20043;-84
2022/11/15 02:48:39;;;;;;;26.05;14.38;;;;;;;9.79;100.00;100556.56;5114589;28;20092;-85
2022/11/15 02:51:05;;;;;;;27.00;15.20;;;;;;;9.81;100.00;100561.78;5114609;28;20049;-85
2022/11/15 02:53:31;;;;;;;26.70;15.05;;;;;;;9.85;100.00;100554.88;5114944;28;20036;-85
2022/11/15 02:55:59;;;;;;;26.77;15.07;;;;;;;9.87;100.00;100554.66;5097797;28;20050;-85
2022/11/15 02:58:57;;;;;;;24.50;14.75;;;;;;;9.91;100.00;100553.19;5116079;28;20564;-85
2022/11/15 03:01:29;;;;;;;29.00;14.40;;;;;;;9.92;100.00;100543.97;5116546;28;20039;-85
2022/11/15 03:04:14;;;;;;;32.60;16.95;;;;;;;9.91;100.00;100547.75;5114637;28;20441;-85
2022/11/15 03:06:52;;;;;;;22.67;14.50;;;;;;;9.92;100.00;100544.84;5115979;28;20480;-85
2022/11/15 03:09:36;;;;;;;31.55;15.18;;;;;;;9.93;100.00;100541.06;5132033;27;20031;-84
2022/11/15 03:12:14;;;;;;;25.05;14.48;;;;;;;9.93;100.00;100535.63;5114457;28;20044;-85
2022/11/15 03:14:58;;;;;;;25.43;14.13;;;;;;;9.96;100.00;100537.09;5114497;28;20043;-85
2022/11/15 03:17:51;;;;;;;32.47;15.48;;;;;;;9.98;100.00;100537.69;5131496;27;20031;-85
2022/11/15 03:20:18;;;;;;;24.15;14.10;;;;;;;10.02;100.00;100544.34;5111692;28;20039;-85
2022/11/15 03:22:45;;;;;;;25.00;14.38;;;;;;;10.06;100.00;100547.44;5097374;28;20035;-85
2022/11/15 03:25:17;;;;;;;29.40;14.43;;;;;;;10.05;100.00;100540.38;5096685;28;20051;-85
2022/11/15 03:27:49;;;;;;;24.03;14.03;;;;;;;10.07;100.00;100541.81;5115053;28;20043;-85
2022/11/15 03:30:15;;;;;;;28.08;15.57;;;;;;;10.07;100.00;100532.81;5114494;28;20038;-85
2022/11/15 03:32:50;;;;;;;26.95;14.77;;;;;;;10.07;100.00;100532.81;5097332;28;20039;-85
2022/11/15 03:35:21;;;;;;;26.65;15.00;;;;;;;10.08;100.00;100548.06;5114668;28;20047;-84
2022/11/15 03:38:05;;;;;;;24.83;14.73;;;;;;;10.10;100.00;100543.25;5114005;28;20059;-85
2022/11/15 03:40:39;;;;;;;28.60;14.77;;;;;;;10.09;100.00;100534.28;5114185;28;20508;-85
2022/11/15 03:43:10;;;;;;;27.45;14.35;;;;;;;10.11;100.00;100543.03;5130679;27;20035;-84
2022/11/15 03:45:54;;;;;;;23.17;13.95;;;;;;;10.12;100.00;100541.97;5115238;28;20043;-85
2022/11/15 03:48:30;;;;;;;29.67;14.95;;;;;;;10.12;100.00;100544.69;5113793;28;20060;-85
2022/11/15 03:50:56;;;;;;;30.10;16.02;;;;;;;10.11;100.00;100534.91;5130550;27;20105;-85
2022/11/15 03:53:21;;;;;;;28.57;15.40;;;;;;;10.15;100.00;100546.13;5113386;28;20135;-85
2022/11/15 03:55:47;;;;;;;28.77;15.43;;;;;;;10.14;100.00;100548.03;5096971;28;20035;-85
2022/11/15 03:58:12;;;;;;;28.57;15.40;;;;;;;10.15;100.00;100541.53;5131327;27;20031;-85
2022/11/15 04:00:37;;;;;;;27.30;15.20;;;;;;;10.16;100.00;100545.09;5096890;28;20387;-85
2022/11/15 04:03:07;;;;;;;32.80;16.33;;;;;;;10.17;100.00;100542.16;5096546;28;20129;-85
2022/11/15 04:05:32;;;;;;;34.95;16.13;;;;;;;10.18;100.00;100542.97;5113459;28;20046;-85
2022/11/15 04:07:57;;;;;;;35.47;17.27;;;;;;;10.15;100.00;100533.41;5114619;28;20039;-85
2022/11/15 04:10:23;;;;;;;33.67;17.38;;;;;;;10.18;100.00;100540.25;5113408;28;20448;-85
2022/11/15 04:12:49;;;;;;;31.17;16.63;;;;;;;10.17;100.00;100531.31;5130178;27;20470;-85
2022/11/15 04:15:21;;;;;;;33.37;16.60;;;;;;;10.16;100.00;100539.66;5096323;28;20096;-85
2022/11/15 04:17:49;;;;;;;34.40;17.02;;;;;;;10.17;100.00;100534.03;5113541;28;20050;-85
2022/11/15 04:25:54;;;;;;;32.00;17.03;;;;;;;10.16;100.00;100534.25;5115065;28;20076;-85
2022/11/15 04:28:20;;;;;;;33.17;17.70;;;;;;;10.18;100.00;100529.41;5113406;28;20138;-84
2022/11/15 04:30:46;;;;;;;33.63;17.40;;;;;;;10.18;100.00;100529.41;5113085;28;20042;-85
2022/11/15 04:33:11;;;;;;;31.30;17.50;;;;;;;10.17;100.00;100531.31;5096371;28;20417;-85
2022/11/15 04:35:37;;;;;;;29.42;16.60;;;;;;;10.14;100.00;100528.19;5112777;28;20040;-84
2022/11/15 04:38:04;;;;;;;35.10;17.20;;;;;;;10.13;100.00;100538.22;5113111;28;20499;-85
2022/11/15 04:40:29;;;;;;;33.60;17.00;;;;;;;10.13;100.00;100542.81;5113939;28;20040;-85
2022/11/15 04:42:55;;;;;;;28.13;16.07;;;;;;;10.12;100.00;100543.84;5114197;28;20043;-85
2022/11/15 04:45:20;;;;;;;32.67;17.03;;;;;;;10.12;100.00;100543.84;5113973;28;20036;-85
2022/11/15 04:47:46;;;;;;;30.70;16.25;;;;;;;10.11;100.00;100539.47;5113029;28;20532;-85
2022/11/15 04:50:13;;;;;;;29.63;16.20;;;;;;;10.08;100.00;100542.63;5112778;28;20062;-85
2022/11/15 04:52:41;;;;;;;31.75;16.42;;;;;;;10.07;100.00;100538.25;5114177;28;20475;-85
2022/11/15 04:55:06;;;;;;;35.35;16.42;;;;;;;10.07;100.00;100541.81;5130131;28;20027;-85
2022/11/15 04:57:32;;;;;;;30.27;16.70;;;;;;;10.05;100.00;100541.19;5112970;28;20127;-85
2022/11/15 04:59:57;;;;;;;39.20;16.73;;;;;;;10.05;100.00;100532.22;5113617;28;20039;-85
2022/11/15 05:02:23;;;;;;;33.40;16.77;;;;;;;10.04;100.00;100533.28;5078885;28;20032;-85
2022/11/15 05:04:48;;;;;;;30.83;15.83;;;;;;;10.04;100.00;100535.97;5112751;28;20047;-85
2022/11/15 05:07:13;;;;;;;34.17;16.07;;;;;;;10.04;100.00;100526.00;5112658;28;20040;-85
2022/11/15 05:09:42;;;;;;;31.63;16.10;;;;;;;10.06;100.00;100531.19;5095394;28;20042;-85
2022/11/15 05:12:07;;;;;;;34.00;17.25;;;;;;;10.05;100.00;100537.66;5112972;28;20036;-85
2022/11/15 05:14:32;;;;;;;26.17;15.60;;;;;;;10.06;100.00;100537.44;5095801;28;20095;-85
2022/11/15 05:16:58;;;;;;;31.53;16.37;;;;;;;10.07;100.00;100535.53;5113134;28;20059;-85
2022/11/15 05:19:23;;;;;;;28.95;15.68;;;;;;;10.06;100.00;100537.44;5113880;28;20529;-85
2022/11/15 05:21:49;;;;;;;31.83;16.05;;;;;;;10.04;100.00;100539.53;5112546;28;20444;-85
2022/11/15 05:24:14;;;;;;;28.30;15.03;;;;;;;10.05;100.00;100526.81;5112197;28;20111;-85
2022/11/15 05:26:40;;;;;;;25.97;15.10;;;;;;;10.02;100.00;100525.38;5078753;28;20057;-85
2022/11/15 05:29:05;;;;;;;29.55;15.68;;;;;;;10.01;100.00;100527.25;5114032;28;20487;-85
2022/11/15 05:31:31;;;;;;;28.47;15.70;;;;;;;9.98;100.00;100532.25;5095806;28;20036;-85
2022/11/15 05:33:59;;;;;;;30.23;15.83;;;;;;;9.98;100.00;100527.69;5112515;28;20127;-85
2022/11/15 05:36:36;;;;;;;31.55;16.42;;;;;;;9.97;100.00;100523.31;5112747;28;20059;-85
2022/11/15 05:39:04;;;;;;;30.13;15.75;;;;;;;9.96;100.00;100515.41;5113253;28;20039;-85
2022/11/15 05:41:35;;;;;;;29.08;16.05;;;;;;;9.94;100.00;100520.22;5113688;28;20084;-85
2022/11/15 05:44:05;;;;;;;31.25;15.95;;;;;;;9.92;100.00;100514.19;5112302;28;20067;-84
2022/11/15 05:46:30;;;;;;;31.53;16.87;;;;;;;9.90;100.00;100511.69;5129313;28;20062;-84
2022/11/15 05:48:57;;;;;;;29.77;16.13;;;;;;;9.92;100.00;100522.31;5115581;28;20044;-85
2022/11/15 05:51:23;;;;;;;27.47;15.83;;;;;;;9.93;100.00;100521.25;5115758;28;20513;-85
2022/11/15 05:53:49;;;;;;;30.17;16.15;;;;;;;9.95;100.00;100525.44;5116013;28;20044;-85
2022/11/15 05:56:16;;;;;;;30.83;15.50;;;;;;;9.96;100.00;100532.47;5115868;28;20036;-85
2022/11/15 05:58:42;;;;;;;38.13;15.60;;;;;;;9.96;100.00;100531.66;5115917;28;20478;-85
2022/11/15 06:01:08;;;;;;;33.15;17.23;;;;;;;9.98;100.00;100535.81;5115812;28;20051;-84
2022/11/15 06:03:33;;;;;;;31.23;16.23;;;;;;;10.01;100.00;100538.09;5115722;28;20036;-85
2022/11/15 06:05:58;;;;;;;30.87;16.13;;;;;;;10.05;100.00;100533.06;5115798;28;20043;-85
2022/11/15 06:08:24;;;;;;;33.40;16.53;;;;;;;10.07;100.00;100535.53;5115767;28;20462;-84
2022/11/15 06:10:49;;;;;;;30.37;16.53;;;;;;;10.06;100.00;100545.56;5115866;28;20278;-86
2022/11/15 06:13:14;;;;;;;29.93;16.60;;;;;;;10.08;100.00;100538.03;5115529;28;20040;-84
2022/11/15 06:15:40;;;;;;;29.07;16.47;;;;;;;10.10;100.00;100546.78;5098539;28;20081;-84
2022/11/15 06:18:05;;;;;;;31.03;16.30;;;;;;;10.10;100.00;100545.97;5098491;28;20040;-84
2022/11/15 06:20:31;;;;;;;30.47;16.40;;;;;;;10.10;100.00;100554.09;5132863;27;20035;-84
2022/11/15 06:23:01;;;;;;;33.35;16.92;;;;;;;10.20;100.00;100546.28;5115556;28;20039;-84
2022/11/15 06:25:28;;;;;;;29.17;16.03;;;;;;;10.17;100.00;100549.44;5115438;28;20122;-85
2022/11/15 06:27:58;;;;;;;35.10;16.90;;;;;;;10.16;100.00;100554.03;5115807;28;20036;-85
2022/11/15 06:30:25;;;;;;;28.88;15.70;;;;;;;10.19;100.00;100550.06;5098432;28;20040;-85
2022/11/15 06:32:57;;;;;;;31.23;16.20;;;;;;;10.15;100.00;100546.94;5132299;27;20036;-85
2022/11/15 06:35:22;;;;;;;27.83;15.80;;;;;;;10.11;100.00;100553.03;5115590;28;20036;-85
2022/11/15 06:37:47;;;;;;;30.97;15.63;;;;;;;10.09;100.00;100555.16;5098131;28;20401;-85
2022/11/15 06:40:13;;;;;;;30.97;15.77;;;;;;;10.06;100.00;100545.56;5132209;27;20059;-85
2022/11/15 06:42:38;;;;;;;27.47;14.87;;;;;;;10.05;100.00;100559.34;5132328;27;20044;-85
2022/11/15 06:45:04;;;;;;;27.07;14.37;;;;;;;10.05;100.00;100562.06;5098198;28;20047;-84
2022/11/15 06:47:29;;;;;;;27.67;15.02;;;;;;;10.05;100.00;100562.06;5114885;28;20070;-84
2022/11/15 06:49:55;;;;;;;29.13;13.63;;;;;;;10.04;100.00;100566.66;5114416;28;20079;-84
2022/11/15 06:52:21;;;;;;;28.13;14.57;;;;;;;10.01;100.00;100567.91;5080939;28;20056;-84
2022/11/15 06:54:47;;;;;;;22.70;13.95;;;;;;;10.01;100.00;100569.81;5097782;28;20079;-84
2022/11/15 06:57:12;;;;;;;26.23;14.27;;;;;;;10.01;100.00;100569.81;5115385;28;20063;-84
2022/11/15 06:59:37;;;;;;;25.80;13.68;;;;;;;10.01;100.00;100576.03;5097283;28;20036;-84
2022/11/15 07:02:03;;;;;;;28.13;13.57;;;;;;;9.97;100.00;100569.38;5114447;28;20063;-84
2022/11/15 07:04:29;;;;;;;25.87;12.73;;;;;;;9.98;100.00;100573.78;5114714;28;20114;-84
2022/11/15 07:06:54;;;;;;;22.37;13.20;;;;;;;9.99;100.00;100575.44;5114264;28;20036;-84
2022/11/15 07:09:19;;;;;;;22.90;12.60;;;;;;;9.99;100.00;100580.00;5115652;27;20313;-84
2022/11/15 07:11:45;;;;;;;21.93;12.63;;;;;;;10.00;100.00;100573.56;5080173;28;20069;-84
2022/11/15 07:14:10;;;;;;;24.23;12.17;;;;;;;10.00;100.00;100576.25;5115206;28;20049;-84
2022/11/15 07:16:36;;;;;;;25.53;12.37;;;;;;;10.00;100.00;100587.91;5097121;28;20479;-84
2022/11/15 07:19:02;;;;;;;19.63;11.95;;;;;;;10.01;100.00;100581.47;5113988;28;20483;-84
2022/11/15 07:21:27;;;;;;;19.23;12.07;;;;;;;10.01;100.00;100577.94;5096856;28;20044;-84
2022/11/15 07:23:53;;;;;;;20.13;12.43;;;;;;;10.04;100.00;100580.19;5096743;28;20070;-83
2022/11/15 07:26:18;;;;;;;22.63;12.70;;;;;;;10.06;100.00;100596.25;5097580;28;20031;-84
2022/11/15 07:28:44;;;;;;;23.73;12.27;;;;;;;10.06;100.00;100591.66;5096571;28;20471;-84
2022/11/15 07:31:09;;;;;;;21.17;11.17;;;;;;;10.07;100.00;100584.34;5113647;28;20199;-84
2022/11/15 07:33:36;;;;;;;23.63;12.55;;;;;;;10.00;100.00;100584.38;5113542;28;20036;-84
2022/11/15 07:36:03;;;;;;;23.43;12.90;;;;;;;9.94;100.00;100591.50;5113926;28;20039;-86
2022/11/15 07:38:29;;;;;;;22.42;12.80;;;;;;;9.87;100.00;100579.88;5113362;28;20096;-85
2022/11/15 07:40:59;;;;;;;22.83;11.75;;;;;;;9.82;100.00;100574.28;5097074;28;20039;-85
2022/11/15 07:43:27;;;;;;;21.90;11.98;;;;;;;9.79;100.00;100570.13;5114018;28;20042;-84
2022/11/15 07:45:53;;;;;;;20.83;11.93;;;;;;;9.77;100.00;100576.81;5096809;28;20396;-85
2022/11/15 07:48:18;;;;;;;23.83;12.07;;;;;;;9.73;100.00;100571.00;5096479;28;20035;-85
2022/11/15 07:50:44;;;;;;;25.00;11.82;;;;;;;9.72;100.00;100571.22;5130331;27;20369;-85
2022/11/15 07:53:10;;;;;;;20.02;11.18;;;;;;;9.71;100.00;100575.78;5096761;28;20112;-84
2022/11/15 07:55:36;;;;;;;21.88;11.57;;;;;;;9.69;100.00;100577.88;5096437;28;20505;-84
2022/11/15 07:58:03;;;;;;;20.73;10.93;;;;;;;9.69;100.00;100575.19;5096455;28;20081;-85
2022/11/15 08:00:29;;;;;;;20.27;11.65;;;;;;;9.65;100.00;100577.50;5113452;28;20039;-89
2022/11/15 08:03:10;;;;;;;21.55;11.85;;;;;;;9.67;100.00;100588.13;5114375;28;20032;-85
2022/11/15 08:05:38;;;;;;;22.43;11.10;;;;;;;9.70;100.00;100584.97;5113674;28;20042;-85
2022/11/15 08:08:04;;;;;;;26.25;11.20;;;;;;;9.66;100.00;100592.69;5130193;27;20081;-85
2022/11/15 08:10:30;;;;;;;19.38;11.05;;;;;;;9.66;100.00;100587.28;5112525;28;20076;-85
2022/11/15 08:13:03;;;;;;;20.30;10.53;;;;;;;9.68;100.00;100586.22;5096372;28;20122;-84
2022/11/15 08:15:29;;;;;;;17.50;9.63;;;;;;;9.62;100.00;100583.31;5113501;28;20078;-84
2022/11/15 08:17:59;;;;;;;20.95;10.98;;;;;;;9.61;100.00;100586.25;5113970;28;20039;-84
2022/11/15 08:20:26;;;;;;;17.30;10.07;;;;;;;9.58;100.00;100587.53;5112977;28;20369;-84
2022/11/15 08:22:51;;;;;;;19.42;10.05;;;;;;;9.58;100.00;100592.94;5112815;28;20039;-85
2022/11/15 08:25:17;;;;;;;20.80;10.00;;;;;;;9.56;100.00;100584.19;5096313;28;20046;-85
2022/11/15 08:27:43;;;;;;;21.90;9.57;;;;;;;9.57;100.00;100583.16;5095947;28;20050;-84
2022/11/15 08:30:08;;;;;;;18.42;9.10;;;;;;;9.60;100.00;100581.91;5130032;27;20104;-84
2022/11/15 08:32:34;;;;;;;16.47;8.70;;;;;;;9.64;100.00;100583.09;5113470;28;20488;-84
2022/11/15 08:35:00;;;;;;;19.48;9.40;;;;;;;9.70;100.00;100568.72;5130052;27;20131;-85
2022/11/15 08:37:27;;;;;;;13.63;7.10;;;;;;;9.77;100.00;100571.38;5095715;28;20043;-85
2022/11/15 08:39:53;;;;;;;13.25;7.68;;;;;;;9.81;100.00;100568.00;5112758;28;20043;-85
2022/11/15 08:42:18;;;;;;;12.47;6.93;;;;;;;9.83;100.00;100570.50;5095583;28;20096;-85
2022/11/15 08:44:44;;;;;;;14.07;6.70;;;;;;;9.89;100.00;100568.81;5113275;28;20047;-85
2022/11/15 08:47:12;;;;;;;13.70;6.93;;;;;;;9.93;100.00;100565.44;5112582;28;20071;-85
2022/11/15 08:49:37;;;;;;;9.27;6.25;;;;;;;9.95;100.00;100555.22;5129571;28;20181;-85
2022/11/15 08:52:05;;;;;;;9.67;5.93;;;;;;;9.99;100.00;100553.75;5129760;28;20487;-85
2022/11/15 08:54:31;;;;;;;11.30;6.40;;;;;;;10.07;100.00;100551.81;5112781;28;20122;-85
2022/11/15 08:56:57;;;;;;;11.38;5.57;;;;;;;10.11;100.00;100548.47;5095852;28;20035;-85
2022/11/15 08:59:22;;;;;;;10.43;5.87;;;;;;;10.20;100.00;100554.41;5095621;28;20047;-85
2022/11/15 09:01:47;;;;;;;10.33;5.37;;;;;;;10.26;100.00;100547.28;5113556;27;20034;-85
2022/11/15 09:04:13;;;;;;;12.15;5.32;;;;;;;10.27;100.00;100549.78;5112486;28;20045;-85
2022/11/15 09:06:38;;;;;;;11.70;4.68;;;;;;;10.26;100.00;100537.28;5113134;28;20036;-85
2022/11/15 09:09:03;;;;;;;10.13;4.50;;;;;;;10.27;100.00;100535.41;5112189;28;20384;-85
2022/11/15 09:11:29;;;;;;;6.37;3.70;;;;;;;10.29;100.00;100526.00;5113481;28;20092;-85
2022/11/15 09:13:54;;;;;;;6.30;3.50;;;;;;;10.39;100.00;100527.41;5112375;28;20490;-85
2022/11/15 09:16:20;;;;;;;4.15;3.15;;;;;;;10.42;100.00;100524.25;5095579;28;20043;-85
2022/11/15 09:18:45;;;;;;;6.30;3.27;;;;;;;10.46;100.00;100518.16;5113212;28;20036;-84
2022/11/15 09:21:11;;;;;;;4.03;3.00;;;;;;;10.53;100.00;100512.69;5096665;28;20397;-85
2022/11/15 09:23:37;;;;;;;7.60;3.17;;;;;;;10.60;100.00;100512.59;5131972;27;20520;-84
2022/11/15 09:26:04;;;;;;;4.60;2.80;;;;;;;10.76;100.00;100524.75;5116449;28;20403;-85
2022/11/15 09:28:30;;;;;;;4.00;2.35;;;;;;;10.85;100.00;100524.25;5116756;28;20548;-85
2022/11/15 09:31:01;;;;;;;6.25;3.10;;;;;;;10.85;100.00;100512.53;5116683;28;20122;-85
2022/11/15 09:33:27;;;;;;;6.07;2.23;;;;;;;10.84;100.00;100513.63;5133567;27;20036;-85
2022/11/15 09:35:53;;;;;;;5.03;2.35;;;;;;;10.81;100.00;100512.19;5116599;28;20040;-84
2022/11/15 09:38:19;;;;;;;4.90;2.08;;;;;;;10.81;99.53;100512.19;5117500;28;20047;-85
2022/11/15 09:40:52;;;;;;;4.78;2.10;;;;;;;10.83;99.70;100510.06;5117564;28;20044;-85
2022/11/15 09:43:31;;;;;;;2.00;1.10;;;;;;;10.81;96.77;100509.47;5117439;28;20036;-84
2022/11/15 09:46:00;;;;;;;4.70;1.83;;;;;;;10.77;98.19;100512.84;5115745;28;20028;-85
2022/11/15 09:49:00;;;;;;;3.17;1.40;;;;;;;10.84;98.22;100508.19;5117428;28;20126;-85
2022/11/15 09:51:46;;;;;;;3.90;1.23;;;;;;;10.83;96.67;100514.66;5072007;28;20048;-85
2022/11/15 09:54:23;;;;;;;2.60;1.40;;;;;;;10.87;94.19;100510.47;5117491;28;20540;-84
2022/11/15 09:56:50;;;;;;;4.87;1.23;;;;;;;10.86;94.72;100496.03;5115998;28;20127;-84
2022/11/15 09:59:15;;;;;;;5.32;1.70;;;;;;;10.94;93.44;100497.66;5116641;28;20120;-85
2022/11/15 10:02:15;;;;;;;2.60;1.00;;;;;;;11.03;91.37;100500.88;5115870;28;20043;-85
2022/11/15 10:04:43;;;;;;;5.57;1.35;;;;;;;11.05;90.78;100506.91;5115814;28;20050;-84
2022/11/15 10:07:12;;;;;;;3.95;1.00;;;;;;;11.09;89.02;100515.41;5115409;28;20040;-85
2022/11/15 10:09:52;;;;;;;5.28;1.10;;;;;;;11.17;89.17;100498.81;5115353;28;20039;-85
2022/11/15 10:12:18;;;;;;;3.15;1.08;;;;;;;11.22;87.36;100497.09;5115773;28;20071;-85
2022/11/15 10:14:46;;;;;;;4.90;0.93;;;;;;;11.29;87.10;100494.28;5115237;28;20496;-85
2022/11/15 10:17:36;;;;;;;4.07;1.00;;;;;;;11.39;86.31;100504.59;5132612;27;20078;-85
2022/11/15 10:20:13;;;;;;;2.50;0.77;;;;;;;11.43;84.82;100505.81;5116107;28;20066;-84
2022/11/15 10:22:38;;;;;;;4.43;1.00;;;;;;;11.41;83.87;100500.59;5115880;28;20062;-84
2022/11/15 10:25:17;;;;;;;11.60;1.37;;;;;;;11.40;84.28;100493.50;5116714;28;20464;-84
2022/11/15 10:27:44;;;;;;;3.05;0.90;;;;;;;11.43;82.08;100486.78;5117008;28;20070;-84
2022/11/15 10:30:19;;;;;;;2.93;0.87;;;;;;;11.39;81.84;100483.69;5132464;27;20043;-84
2022/11/15 10:32:47;;;;;;;3.50;0.80;;;;;;;11.39;80.91;100486.41;5117125;28;20032;-84
2022/11/15 10:35:21;;;;;;;3.58;0.82;;;;;;;11.32;82.08;100474.81;5131602;27;20040;-85
2022/11/15 10:37:47;;;;;;;3.47;1.42;;;;;;;11.38;81.88;100465.75;5116675;28;20027;-84
2022/11/15 10:40:22;;;;;;;4.00;0.68;;;;;;;11.46;81.58;100469.22;5115311;28;20035;-84
2022/11/15 10:42:56;;;;;;;3.37;0.67;;;;;;;11.47;79.86;100458.13;5132398;27;20157;-87
2022/11/15 10:45:30;;;;;;;4.70;0.95;;;;;;;11.50;80.11;100444.06;5131859;27;20039;-86
2022/11/15 10:48:22;;;;;;;5.40;0.73;;;;;;;11.60;79.85;100443.50;5132301;27;20128;-87
2022/11/15 10:50:50;;;;;;;5.22;0.80;;;;;;;11.74;78.27;100442.22;5110769;28;20104;-86
2022/11/15 10:56:26;;;;;;;3.90;0.67;;;;;;;11.93;76.47;100440.28;5116387;28;20043;-85
2022/11/15 10:58:58;;;;;;;2.42;0.50;;;;;;;12.21;77.11;100443.38;5114479;28;20035;-85
2022/11/15 11:01:27;;;;;;;2.60;0.70;;;;;;;12.97;75.16;100433.34;5114886;28;20123;-85
2022/11/15 11:04:06;;;;;;;3.45;0.70;;;;;;;14.52;68.77;100427.78;5131624;27;20028;-85
2022/11/15 11:06:49;;;;;;;3.90;0.60;;;;;;;16.25;64.75;100418.94;5114747;28;20036;-85
2022/11/15 11:09:36;;;;;;;5.80;0.70;;;;;;;18.19;60.20;100416.22;5131496;27;20046;-84
2022/11/15 11:12:04;;;;;;;3.35;0.88;;;;;;;19.62;50.18;100409.25;5114734;28;20072;-85
2022/11/15 11:14:32;;;;;;;2.58;0.75;;;;;;;20.22;47.80;100402.69;5114337;28;20044;-85
2022/11/15 11:17:20;;;;;;;3.67;0.80;;;;;;;19.82;52.15;100406.66;5115326;28;20046;-84
2022/11/15 11:20:04;;;;;;;4.32;0.85;;;;;;;19.50;51.32;100391.47;5104338;28;20042;-85
2022/11/15 11:22:56;;;;;;;2.23;0.90;;;;;;;19.05;53.61;100392.28;5115818;28;20081;-84
2022/11/15 11:25:44;;;;;;;4.40;0.80;;;;;;;18.85;55.06;100382.22;5115863;28;20080;-85
2022/11/15 11:28:13;;;;;;;2.25;0.70;;;;;;;18.97;49.31;100372.81;5114394;28;20044;-85
2022/11/15 11:30:59;;;;;;;2.55;0.90;;;;;;;19.17;52.43;100372.69;5115423;28;20092;-84